Time;durP1;ratioP1;P1;durP2;ratioP2;P2;SDS_P1;SDS_P2;PMS_P1;PMS_P2;Temp;Humidity;BMP_temperature;BMP_pressure;BME280_temperature;BME280_humidity;BME280_pressure;Samples;Min_cycle;Max_cycle;Signal;HPM_P1;HPM_P2
2023/01/14 00:01:27;;;;;;;;;;;21.40;51.00;;;;;;6058616;29;19924;-56
2023/01/14 00:04:29;;;;;;;;;;;21.50;51.00;;;;;;6042746;29;19924;-56
2023/01/14 00:07:30;;;;;;;;;;;21.80;51.30;;;;;;6059340;29;19934;-56
2023/01/14 00:10:32;;;;;;;;;;;21.70;50.80;;;;;;6059025;29;20313;-56
2023/01/14 00:13:34;;;;;;;;;;;21.60;50.90;;;;;;6058484;29;19931;-56
2023/01/14 00:16:35;;;;;;;;;;;21.30;51.10;;;;;;6059235;29;19924;-55
2023/01/14 00:19:37;;;;;;;;;;;21.50;51.20;;;;;;6059494;29;19931;-56
2023/01/14 00:22:38;;;;;;;;;;;21.40;51.10;;;;;;6058341;29;19923;-56
2023/01/14 00:25:39;;;;;;;;;;;21.50;51.20;;;;;;6057713;29;20477;-56
2023/01/14 00:28:44;;;;;;;;;;;21.30;51.30;;;;;;6058149;29;20368;-56
2023/01/14 00:31:46;;;;;;;;;;;21.60;51.30;;;;;;6058321;29;20035;-56
2023/01/14 00:34:47;;;;;;;;;;;21.30;51.10;;;;;;6041882;29;19927;-56
2023/01/14 00:37:49;;;;;;;;;;;21.20;51.20;;;;;;6057518;29;20385;-55
2023/01/14 00:40:59;;;;;;;;;;;21.70;51.40;;;;;;6056901;29;19928;-56
2023/01/14 00:44:01;;;;;;;;;;;21.60;51.20;;;;;;6058000;29;20372;-55
2023/01/14 00:47:03;;;;;;;;;;;21.50;51.30;;;;;;6058155;29;20014;-53
2023/01/14 00:50:04;;;;;;;;;;;21.40;51.30;;;;;;6056872;29;19924;-55
2023/01/14 00:53:05;;;;;;;;;;;21.80;51.70;;;;;;6057543;29;19923;-55
2023/01/14 00:56:07;;;;;;;;;;;21.20;51.30;;;;;;6057070;29;19931;-55
2023/01/14 00:59:15;;;;;;;;;;;21.30;51.40;;;;;;6060034;29;19932;-54
2023/01/14 01:02:16;;;;;;;;;;;21.30;51.20;;;;;;6045097;29;19924;-55
2023/01/14 01:05:18;;;;;;;;;;;21.40;51.60;;;;;;6061164;29;19923;-54
2023/01/14 01:08:20;;;;;;;;;;;21.40;51.50;;;;;;6059936;29;19924;-55
2023/01/14 01:11:22;;;;;;;;;;;21.80;51.60;;;;;;6043056;29;19924;-56
2023/01/14 01:14:24;;;;;;;;;;;21.60;51.60;;;;;;6059818;29;19923;-55
2023/01/14 01:17:25;;;;;;;;;;;21.50;51.70;;;;;;6060490;29;19924;-54
2023/01/14 01:20:27;;;;;;;;;;;21.60;51.70;;;;;;6060850;29;19932;-55
2023/01/14 01:23:29;;;;;;;;;;;21.30;51.50;;;;;;6061518;29;19955;-55
2023/01/14 01:26:30;;;;;;;;;;;21.60;51.50;;;;;;6061089;29;19931;-55
2023/01/14 01:29:32;;;;;;;;;;;21.20;51.50;;;;;;6060383;29;20325;-56
2023/01/14 01:32:34;;;;;;;;;;;21.30;51.60;;;;;;6060014;29;20426;-56
2023/01/14 01:35:35;;;;;;;;;;;21.10;51.60;;;;;;6059488;29;20408;-56
2023/01/14 01:38:36;;;;;;;;;;;21.30;51.60;;;;;;6060111;29;19924;-53
2023/01/14 01:41:38;;;;;;;;;;;21.50;51.60;;;;;;6059417;29;19948;-55
2023/01/14 01:44:50;;;;;;;;;;;21.30;51.70;;;;;;6059423;29;20022;-55
2023/01/14 01:47:54;;;;;;;;;;;21.10;51.40;;;;;;6059511;29;19931;-55
2023/01/14 01:50:58;;;;;;;;;;;21.50;51.80;;;;;;6043520;29;19931;-54
2023/01/14 01:53:59;;;;;;;;;;;21.40;51.60;;;;;;6058888;29;19975;-54
2023/01/14 01:57:01;;;;;;;;;;;21.50;51.80;;;;;;6059423;29;19985;-55
2023/01/14 02:00:06;;;;;;;;;;;21.50;51.80;;;;;;6060928;29;19927;-55
2023/01/14 02:03:16;;;;;;;;;;;21.60;51.80;;;;;;6059588;29;19983;-53
2023/01/14 02:06:18;;;;;;;;;;;21.10;51.70;;;;;;6059081;29;19923;-54
2023/01/14 02:09:21;;;;;;;;;;;21.20;51.80;;;;;;6058535;29;19931;-55
2023/01/14 02:12:36;;;;;;;;;;;21.70;52.10;;;;;;6060753;29;20391;-54
2023/01/14 02:15:41;;;;;;;;;;;21.40;51.90;;;;;;6059256;29;19924;-56
2023/01/14 02:18:51;;;;;;;;;;;21.20;51.80;;;;;;6062259;29;19924;-53
2023/01/14 02:22:08;;;;;;;;;;;21.50;51.80;;;;;;6060188;29;19923;-55
2023/01/14 02:25:21;;;;;;;;;;;21.20;51.80;;;;;;6060357;29;20316;-55
2023/01/14 02:28:28;;;;;;;;;;;21.20;51.80;;;;;;6060686;29;19951;-54
2023/01/14 02:31:33;;;;;;;;;;;21.00;51.70;;;;;;6063134;29;20299;-56
2023/01/14 02:34:39;;;;;;;;;;;21.30;52.00;;;;;;6060555;29;20003;-55
2023/01/14 02:37:45;;;;;;;;;;;21.00;51.80;;;;;;6059375;29;19931;-56
2023/01/14 02:40:51;;;;;;;;;;;21.10;51.70;;;;;;6043099;29;20416;-56
2023/01/14 02:44:07;;;;;;;;;;;21.70;52.10;;;;;;6059170;29;19995;-56
2023/01/14 02:47:13;;;;;;;;;;;21.50;52.00;;;;;;6059077;29;19923;-56
2023/01/14 02:50:15;;;;;;;;;;;21.20;52.00;;;;;;6059766;29;19924;-56
2023/01/14 02:53:17;;;;;;;;;;;21.30;52.20;;;;;;6059073;29;19923;-56
2023/01/14 02:56:20;;;;;;;;;;;21.10;51.90;;;;;;6059392;29;19934;-55
2023/01/14 02:59:30;;;;;;;;;;;21.30;52.20;;;;;;6059223;29;20278;-56
2023/01/14 03:02:43;;;;;;;;;;;21.00;51.90;;;;;;6058963;29;19923;-55
2023/01/14 03:05:51;;;;;;;;;;;21.40;52.10;;;;;;6058972;29;19972;-56
2023/01/14 03:08:57;;;;;;;;;;;21.00;51.90;;;;;;6058880;29;19923;-56
2023/01/14 03:12:07;;;;;;;;;;;21.10;51.90;;;;;;6059234;29;19943;-56
2023/01/14 03:15:17;;;;;;;;;;;21.40;52.00;;;;;;6042891;29;20349;-56
2023/01/14 03:18:20;;;;;;;;;;;21.40;52.00;;;;;;6058717;29;20026;-56
2023/01/14 03:21:24;;;;;;;;;;;21.00;52.00;;;;;;6058550;29;19930;-56
2023/01/14 03:24:27;;;;;;;;;;;21.30;52.10;;;;;;6058673;29;19924;-56
2023/01/14 03:27:33;;;;;;;;;;;21.10;52.00;;;;;;6042052;29;20389;-56
2023/01/14 03:30:36;;;;;;;;;;;21.30;52.00;;;;;;6058788;29;19931;-56
2023/01/14 03:33:39;;;;;;;;;;;21.50;52.10;;;;;;6041825;29;19931;-56
2023/01/14 03:36:42;;;;;;;;;;;21.10;52.10;;;;;;6058221;29;19932;-55
2023/01/14 03:39:44;;;;;;;;;;;21.00;52.00;;;;;;6058631;29;19931;-56
2023/01/14 03:42:48;;;;;;;;;;;21.40;52.20;;;;;;6058018;29;19924;-54
2023/01/14 03:45:50;;;;;;;;;;;21.70;52.30;;;;;;6058079;29;20420;-56
2023/01/14 03:48:52;;;;;;;;;;;21.30;52.20;;;;;;6058174;29;20018;-56
2023/01/14 03:51:57;;;;;;;;;;;21.00;52.20;;;;;;6058157;29;19923;-56
2023/01/14 03:55:02;;;;;;;;;;;21.30;52.20;;;;;;6058252;29;20377;-56
2023/01/14 03:58:06;;;;;;;;;;;21.60;52.30;;;;;;6041571;29;19923;-56
2023/01/14 04:01:09;;;;;;;;;;;21.30;52.20;;;;;;6041444;29;20001;-55
2023/01/14 04:04:12;;;;;;;;;;;21.00;52.00;;;;;;6041366;29;19934;-56
2023/01/14 04:07:13;;;;;;;;;;;21.10;52.30;;;;;;6058361;29;19924;-56
2023/01/14 04:10:15;;;;;;;;;;;21.00;52.00;;;;;;6057749;29;19958;-56
2023/01/14 04:16:31;;;;;;;;;;;21.50;52.40;;;;;;6057666;29;19928;-54
2023/01/14 04:19:33;;;;;;;;;;;21.10;52.20;;;;;;6057830;29;20357;-56
2023/01/14 04:22:34;;;;;;;;;;;21.00;52.30;;;;;;6057893;29;19923;-56
2023/01/14 04:25:35;;;;;;;;;;;21.30;52.40;;;;;;6057708;29;19970;-54
2023/01/14 04:28:36;;;;;;;;;;;21.00;52.30;;;;;;6058268;29;20266;-56
2023/01/14 04:31:38;;;;;;;;;;;21.10;52.30;;;;;;6057581;29;19923;-56
2023/01/14 04:34:40;;;;;;;;;;;21.00;52.20;;;;;;6060941;29;19931;-56
2023/01/14 04:37:41;;;;;;;;;;;21.60;52.60;;;;;;6060965;29;19928;-56
2023/01/14 04:40:42;;;;;;;;;;;20.90;52.20;;;;;;6061127;29;19923;-56
2023/01/14 04:43:43;;;;;;;;;;;21.30;52.40;;;;;;6060493;29;20376;-55
2023/01/14 04:46:45;;;;;;;;;;;21.70;52.70;;;;;;6060933;29;19924;-56
2023/01/14 04:49:46;;;;;;;;;;;21.30;52.40;;;;;;6060324;29;19963;-56
2023/01/14 04:52:48;;;;;;;;;;;21.10;52.40;;;;;;6060179;29;19930;-55
2023/01/14 04:55:50;;;;;;;;;;;21.20;52.50;;;;;;6060574;29;19930;-56
2023/01/14 04:58:52;;;;;;;;;;;21.00;52.20;;;;;;6060453;29;19923;-56
2023/01/14 05:01:53;;;;;;;;;;;21.30;52.50;;;;;;6060279;29;20380;-56
2023/01/14 05:04:55;;;;;;;;;;;21.20;52.50;;;;;;6060547;29;19924;-54
2023/01/14 05:07:57;;;;;;;;;;;21.40;53.30;;;;;;6060313;29;20026;-55
2023/01/14 05:10:58;;;;;;;;;;;21.20;52.40;;;;;;6059866;29;20437;-56
2023/01/14 05:13:59;;;;;;;;;;;21.50;52.70;;;;;;6060298;29;20369;-56
2023/01/14 05:17:01;;;;;;;;;;;21.50;52.70;;;;;;6060236;29;20014;-56
2023/01/14 05:20:03;;;;;;;;;;;21.00;52.30;;;;;;6059972;29;19984;-55
2023/01/14 05:23:05;;;;;;;;;;;21.40;52.60;;;;;;6060208;29;19979;-56
2023/01/14 05:26:06;;;;;;;;;;;21.20;52.40;;;;;;6043278;29;20457;-56
2023/01/14 05:29:07;;;;;;;;;;;21.10;52.50;;;;;;6059971;29;20369;-56
2023/01/14 05:32:12;;;;;;;;;;;21.20;52.60;;;;;;6060004;29;19931;-55
2023/01/14 05:35:13;;;;;;;;;;;21.00;52.50;;;;;;6059719;29;19932;-56
2023/01/14 05:38:15;;;;;;;;;;;21.20;52.70;;;;;;6060164;29;19924;-54
2023/01/14 05:41:16;;;;;;;;;;;21.00;52.50;;;;;;6060123;29;19923;-56
2023/01/14 05:47:31;;;;;;;;;;;21.60;52.90;;;;;;6059485;29;20020;-55
2023/01/14 05:50:33;;;;;;;;;;;21.30;52.70;;;;;;6059766;29;19976;-56
2023/01/14 05:53:34;;;;;;;;;;;21.00;52.60;;;;;;6059443;29;19930;-56
2023/01/14 05:56:36;;;;;;;;;;;21.20;52.80;;;;;;6059155;29;19924;-54
2023/01/14 05:59:37;;;;;;;;;;;21.00;52.70;;;;;;6059573;29;19923;-56
2023/01/14 06:09:09;;;;;;;;;;;21.30;52.80;;;;;;6058282;29;20273;-56
2023/01/14 06:12:31;;;;;;;;;;;21.20;52.70;;;;;;6059124;29;20107;-56
2023/01/14 06:15:35;;;;;;;;;;;21.30;52.80;;;;;;6045382;29;19963;-56
2023/01/14 06:18:41;;;;;;;;;;;21.60;53.10;;;;;;6058772;29;19952;-56
2023/01/14 06:21:43;;;;;;;;;;;21.20;52.70;;;;;;6059204;29;20024;-56
2023/01/14 06:24:44;;;;;;;;;;;21.10;52.80;;;;;;6058773;29;19976;-56
2023/01/14 06:27:45;;;;;;;;;;;21.10;52.80;;;;;;6058638;29;19924;-56
2023/01/14 06:30:48;;;;;;;;;;;21.00;52.80;;;;;;6059030;29;19924;-56
2023/01/14 06:33:49;;;;;;;;;;;21.00;52.80;;;;;;6058519;29;19924;-56
2023/01/14 06:36:51;;;;;;;;;;;21.00;52.80;;;;;;6058613;29;20403;-56
2023/01/14 06:39:52;;;;;;;;;;;21.10;52.80;;;;;;6059134;29;20300;-55
2023/01/14 06:42:53;;;;;;;;;;;21.60;53.70;;;;;;6058708;29;20284;-56
2023/01/14 06:45:55;;;;;;;;;;;21.30;52.90;;;;;;6059664;29;19931;-56
2023/01/14 06:48:56;;;;;;;;;;;21.20;52.80;;;;;;6042979;29;19932;-56
2023/01/14 06:51:58;;;;;;;;;;;21.10;52.90;;;;;;6059290;29;19923;-56
2023/01/14 06:54:59;;;;;;;;;;;21.00;52.70;;;;;;6058693;29;19924;-55
2023/01/14 06:58:01;;;;;;;;;;;21.10;53.40;;;;;;6059456;29;20355;-56
2023/01/14 07:01:02;;;;;;;;;;;21.10;52.90;;;;;;6059153;29;19924;-55
2023/01/14 07:04:04;;;;;;;;;;;21.20;52.70;;;;;;6042025;29;19996;-56
2023/01/14 07:07:06;;;;;;;;;;;21.60;53.10;;;;;;6059081;29;19924;-54
2023/01/14 07:10:08;;;;;;;;;;;21.10;52.90;;;;;;6058928;29;19931;-56
2023/01/14 07:13:09;;;;;;;;;;;21.00;52.70;;;;;;6058788;29;19927;-56
2023/01/14 07:16:12;;;;;;;;;;;21.30;52.90;;;;;;6059161;29;20325;-56
2023/01/14 07:19:14;;;;;;;;;;;21.50;52.80;;;;;;6058919;29;19924;-53
2023/01/14 07:22:16;;;;;;;;;;;21.10;52.80;;;;;;6058981;29;20038;-56
2023/01/14 07:25:17;;;;;;;;;;;21.10;52.90;;;;;;6058750;29;19924;-56
2023/01/14 07:28:19;;;;;;;;;;;21.30;53.00;;;;;;6058632;29;20025;-55
2023/01/14 07:31:20;;;;;;;;;;;21.10;52.80;;;;;;6058486;29;20381;-56
2023/01/14 07:34:22;;;;;;;;;;;21.20;52.90;;;;;;6058011;29;19940;-56
2023/01/14 07:37:23;;;;;;;;;;;21.50;52.90;;;;;;6059041;29;19931;-56
2023/01/14 07:40:25;;;;;;;;;;;21.30;53.00;;;;;;6059081;29;19924;-56
2023/01/14 07:43:27;;;;;;;;;;;21.10;52.80;;;;;;6042256;29;20000;-56
2023/01/14 07:46:29;;;;;;;;;;;21.20;53.00;;;;;;6058762;29;19924;-56
2023/01/14 07:49:30;;;;;;;;;;;21.50;53.10;;;;;;6059304;29;20139;-56
2023/01/14 07:52:32;;;;;;;;;;;21.30;52.90;;;;;;6058375;29;20022;-56
2023/01/14 07:55:33;;;;;;;;;;;21.00;52.90;;;;;;6058533;29;19923;-56
2023/01/14 07:58:35;;;;;;;;;;;21.40;53.00;;;;;;6042219;29;19947;-56
2023/01/14 08:01:36;;;;;;;;;;;21.70;53.30;;;;;;6058370;29;19923;-56
2023/01/14 08:04:38;;;;;;;;;;;21.20;52.90;;;;;;6058168;29;19931;-56
2023/01/14 08:07:40;;;;;;;;;;;21.00;52.90;;;;;;6059598;29;19924;-56
2023/01/14 08:10:41;;;;;;;;;;;21.30;53.10;;;;;;6062326;29;19931;-56
2023/01/14 08:13:42;;;;;;;;;;;21.90;53.30;;;;;;6062799;29;20376;-56
2023/01/14 08:16:44;;;;;;;;;;;21.30;52.90;;;;;;6047327;29;20038;-55
2023/01/14 08:19:45;;;;;;;;;;;20.90;52.90;;;;;;6064539;29;19991;-56
2023/01/14 08:22:47;;;;;;;;;;;21.00;52.90;;;;;;6063834;29;20022;-56
2023/01/14 08:25:48;;;;;;;;;;;21.60;53.10;;;;;;6063450;29;19996;-56
2023/01/14 08:28:49;;;;;;;;;;;21.10;52.50;;;;;;6063546;29;19977;-56
2023/01/14 08:31:51;;;;;;;;;;;21.60;53.20;;;;;;6063350;29;19928;-56
2023/01/14 08:34:52;;;;;;;;;;;21.40;52.90;;;;;;6063958;29;20368;-56
2023/01/14 08:37:54;;;;;;;;;;;21.60;53.30;;;;;;6063078;29;19923;-56
2023/01/14 08:40:56;;;;;;;;;;;21.10;52.90;;;;;;6063196;29;20377;-56
2023/01/14 08:43:57;;;;;;;;;;;21.10;52.90;;;;;;6062894;29;20258;-56
2023/01/14 08:46:58;;;;;;;;;;;21.10;52.80;;;;;;6063000;29;19928;-56
2023/01/14 08:49:59;;;;;;;;;;;21.60;53.30;;;;;;6064996;29;19963;-56
2023/01/14 08:53:01;;;;;;;;;;;21.10;52.90;;;;;;6062525;29;19928;-56
2023/01/14 08:56:04;;;;;;;;;;;20.90;52.80;;;;;;6062244;29;19924;-55
2023/01/14 08:59:05;;;;;;;;;;;21.40;53.00;;;;;;6063604;29;19936;-56
2023/01/14 09:02:06;;;;;;;;;;;21.90;53.40;;;;;;6063967;29;19927;-57
2023/01/14 09:05:08;;;;;;;;;;;21.30;53.10;;;;;;6064639;29;19924;-55
2023/01/14 09:17:52;;;;;;;;;;;21.20;52.90;;;;;;6080986;29;19928;-55
2023/01/14 09:20:53;;;;;;;;;;;21.70;53.30;;;;;;6081008;29;20385;-55
2023/01/14 09:23:55;;;;;;;;;;;21.10;52.90;;;;;;6077288;29;19923;-54
2023/01/14 09:26:56;;;;;;;;;;;21.90;53.60;;;;;;6065764;29;19930;-55
2023/01/14 09:29:58;;;;;;;;;;;21.30;52.90;;;;;;6065814;29;20337;-55
2023/01/14 09:32:59;;;;;;;;;;;21.00;53.10;;;;;;6066186;29;20377;-55
2023/01/14 09:36:01;;;;;;;;;;;21.40;53.20;;;;;;6063034;29;19934;-55
2023/01/14 09:39:03;;;;;;;;;;;21.80;53.60;;;;;;6070759;29;20377;-55
2023/01/14 09:42:06;;;;;;;;;;;21.00;53.20;;;;;;6072136;29;19924;-55
2023/01/14 09:45:12;;;;;;;;;;;21.80;53.40;;;;;;6068090;29;19923;-54
2023/01/14 09:48:15;;;;;;;;;;;21.30;53.10;;;;;;6075301;29;19957;-55
2023/01/14 09:51:24;;;;;;;;;;;21.50;53.30;;;;;;6073439;29;19942;-55
2023/01/14 09:54:29;;;;;;;;;;;21.30;53.20;;;;;;6073115;29;19931;-53
2023/01/14 09:57:36;;;;;;;;;;;21.70;53.40;;;;;;6073044;29;20325;-54
2023/01/14 10:00:42;;;;;;;;;;;21.20;53.10;;;;;;6073566;29;19923;-53
2023/01/14 10:03:47;;;;;;;;;;;21.40;53.30;;;;;;6072990;29;19930;-55
2023/01/14 10:06:51;;;;;;;;;;;21.10;53.10;;;;;;6075163;29;19924;-54
2023/01/14 10:09:58;;;;;;;;;;;21.50;53.40;;;;;;6073769;29;19923;-55
2023/01/14 10:13:02;;;;;;;;;;;21.30;53.40;;;;;;6055925;29;19927;-55
2023/01/14 10:16:07;;;;;;;;;;;21.50;53.40;;;;;;6071938;29;19923;-55
2023/01/14 10:19:14;;;;;;;;;;;21.40;53.30;;;;;;6056150;29;19924;-55
2023/01/14 10:22:20;;;;;;;;;;;21.00;53.10;;;;;;6073078;29;20342;-55
2023/01/14 10:25:23;;;;;;;;;;;21.40;53.40;;;;;;6071941;29;20288;-55
2023/01/14 10:28:25;;;;;;;;;;;21.60;53.60;;;;;;6072544;29;19923;-54
2023/01/14 10:31:27;;;;;;;;;;;21.50;53.40;;;;;;6071053;29;19928;-55
2023/01/14 10:34:31;;;;;;;;;;;21.10;53.30;;;;;;6056235;29;19924;-53
2023/01/14 10:37:33;;;;;;;;;;;21.20;53.40;;;;;;6072387;29;19924;-55
2023/01/14 10:40:34;;;;;;;;;;;21.50;53.50;;;;;;6072510;29;19924;-54
2023/01/14 10:43:38;;;;;;;;;;;21.10;53.30;;;;;;6072421;29;20284;-55
2023/01/14 10:46:42;;;;;;;;;;;21.10;53.30;;;;;;6072279;29;19991;-55
2023/01/14 10:49:45;;;;;;;;;;;21.50;54.10;;;;;;6068808;29;19923;-55
2023/01/14 10:52:46;;;;;;;;;;;21.70;53.60;;;;;;6069128;29;19930;-55
2023/01/14 10:55:51;;;;;;;;;;;21.50;53.50;;;;;;6069390;29;19947;-55
2023/01/14 10:58:53;;;;;;;;;;;21.80;53.70;;;;;;6052738;29;19931;-55
2023/01/14 11:01:55;;;;;;;;;;;21.30;53.50;;;;;;6068951;29;19923;-54
2023/01/14 11:05:06;;;;;;;;;;;21.70;53.80;;;;;;6068565;29;20333;-55
2023/01/14 11:08:19;;;;;;;;;;;21.20;53.40;;;;;;6052237;29;19923;-55
2023/01/14 11:11:24;;;;;;;;;;;21.60;53.60;;;;;;6052478;29;19924;-55
2023/01/14 11:14:27;;;;;;;;;;;21.20;54.10;;;;;;6068552;29;20018;-55
2023/01/14 11:17:29;;;;;;;;;;;21.00;53.40;;;;;;6068858;29;19923;-53
2023/01/14 11:20:30;;;;;;;;;;;21.00;53.30;;;;;;6068298;29;19924;-55
2023/01/14 11:23:33;;;;;;;;;;;21.60;53.20;;;;;;6069210;29;19928;-54
2023/01/14 11:26:36;;;;;;;;;;;21.10;53.50;;;;;;6069053;29;19923;-54
2023/01/14 11:29:42;;;;;;;;;;;21.50;53.70;;;;;;6068745;29;19924;-55
2023/01/14 11:32:48;;;;;;;;;;;21.10;53.50;;;;;;6068310;29;19924;-54
2023/01/14 11:35:51;;;;;;;;;;;21.60;53.80;;;;;;6068279;29;19930;-55
2023/01/14 11:38:55;;;;;;;;;;;21.30;53.70;;;;;;6068374;29;19947;-55
2023/01/14 11:41:57;;;;;;;;;;;21.10;53.60;;;;;;6069235;29;19923;-54
2023/01/14 11:45:00;;;;;;;;;;;21.30;53.70;;;;;;6067967;29;19928;-55
2023/01/14 11:48:01;;;;;;;;;;;21.60;53.80;;;;;;6068338;29;20376;-55
2023/01/14 11:51:04;;;;;;;;;;;21.40;53.80;;;;;;6067626;29;19931;-55
2023/01/14 11:54:14;;;;;;;;;;;21.30;53.60;;;;;;6050368;29;19931;-55
2023/01/14 11:57:17;;;;;;;;;;;21.20;53.60;;;;;;6067760;29;19995;-55
2023/01/14 12:00:20;;;;;;;;;;;21.70;53.90;;;;;;6067179;29;19931;-53
2023/01/14 12:03:28;;;;;;;;;;;21.20;53.70;;;;;;6064412;29;20018;-53
2023/01/14 12:06:31;;;;;;;;;;;21.00;53.60;;;;;;6047167;29;19924;-53
2023/01/14 12:09:37;;;;;;;;;;;21.30;53.70;;;;;;6061867;29;20369;-55
2023/01/14 12:19:19;;;;;;;;;;;21.60;53.90;;;;;;6061951;29;19923;-54
2023/01/14 12:22:22;;;;;;;;;;;21.10;53.70;;;;;;6062082;29;19971;-52
2023/01/14 12:25:25;;;;;;;;;;;21.50;53.90;;;;;;6062261;29;20411;-55
2023/01/14 12:28:29;;;;;;;;;;;21.50;53.90;;;;;;6045942;29;19923;-54
2023/01/14 12:31:33;;;;;;;;;;;21.60;54.10;;;;;;6061851;29;19931;-54
2023/01/14 12:34:38;;;;;;;;;;;21.30;53.90;;;;;;6061863;29;19930;-54
2023/01/14 12:37:46;;;;;;;;;;;21.20;53.90;;;;;;6061604;29;19930;-55
2023/01/14 12:47:19;;;;;;;;;;;21.20;54.00;;;;;;6060392;29;19923;-53
2023/01/14 12:50:21;;;;;;;;;;;21.50;54.20;;;;;;6061276;29;19924;-54
2023/01/14 12:53:25;;;;;;;;;;;21.30;54.00;;;;;;6062109;29;19930;-55
2023/01/14 12:56:27;;;;;;;;;;;21.60;54.20;;;;;;6065001;29;19948;-54
2023/01/14 12:59:31;;;;;;;;;;;21.20;54.00;;;;;;6064774;29;19924;-55
2023/01/14 13:02:33;;;;;;;;;;;21.10;54.00;;;;;;6065224;29;19946;-53
2023/01/14 13:05:38;;;;;;;;;;;21.20;53.90;;;;;;6064948;29;20056;-55
2023/01/14 13:08:39;;;;;;;;;;;21.70;54.30;;;;;;6064704;29;19923;-55
2023/01/14 13:11:43;;;;;;;;;;;21.30;54.20;;;;;;6064025;29;19924;-55
2023/01/14 13:14:52;;;;;;;;;;;21.80;54.40;;;;;;6064465;29;20280;-54
2023/01/14 13:17:55;;;;;;;;;;;21.40;54.30;;;;;;6064265;29;20018;-54
2023/01/14 13:20:56;;;;;;;;;;;21.30;54.20;;;;;;6064898;29;19923;-54
2023/01/14 13:23:59;;;;;;;;;;;21.70;54.50;;;;;;6064337;29;19923;-54
2023/01/14 13:27:01;;;;;;;;;;;21.90;54.50;;;;;;6064038;29;19980;-55
2023/01/14 13:30:17;;;;;;;;;;;21.30;54.20;;;;;;6047975;29;20364;-55
2023/01/14 13:33:26;;;;;;;;;;;21.60;54.40;;;;;;6063858;29;19928;-54
2023/01/14 13:36:28;;;;;;;;;;;21.60;54.40;;;;;;6047973;29;19924;-55
2023/01/14 13:39:30;;;;;;;;;;;21.90;54.70;;;;;;6063744;29;20369;-55
2023/01/14 13:42:32;;;;;;;;;;;21.20;54.10;;;;;;6063570;29;19980;-53
2023/01/14 13:45:34;;;;;;;;;;;21.80;54.50;;;;;;6047745;29;19931;-54
2023/01/14 13:48:38;;;;;;;;;;;21.70;54.50;;;;;;6064651;29;20004;-55
2023/01/14 13:51:41;;;;;;;;;;;21.90;54.80;;;;;;6064559;29;19931;-55
2023/01/14 13:54:43;;;;;;;;;;;21.30;54.30;;;;;;6064339;29;19928;-55
2023/01/14 13:57:49;;;;;;;;;;;21.50;54.40;;;;;;6063584;29;19963;-50
2023/01/14 14:00:59;;;;;;;;;;;21.70;54.60;;;;;;6064451;29;19924;-54
2023/01/14 14:04:03;;;;;;;;;;;21.60;54.50;;;;;;6063838;29;19924;-53
2023/01/14 14:07:07;;;;;;;;;;;21.50;54.60;;;;;;6047385;29;20341;-55
2023/01/14 14:10:10;;;;;;;;;;;21.60;54.70;;;;;;6063186;29;19949;-55
2023/01/14 14:16:30;;;;;;;;;;;21.70;54.60;;;;;;6049620;29;20298;-54
2023/01/14 14:19:37;;;;;;;;;;;21.50;54.50;;;;;;6062719;29;19927;-55
2023/01/14 14:22:57;;;;;;;;;;;21.50;54.60;;;;;;6049300;29;19931;-54
2023/01/14 14:26:00;;;;;;;;;;;21.40;54.60;;;;;;6063719;29;20441;-54
2023/01/14 14:29:07;;;;;;;;;;;21.70;54.80;;;;;;6064004;29;20303;-55
2023/01/14 14:32:27;;;;;;;;;;;21.40;54.70;;;;;;6063931;29;19930;-54
2023/01/14 14:35:30;;;;;;;;;;;22.00;55.00;;;;;;6063674;29;19931;-55
2023/01/14 14:38:32;;;;;;;;;;;21.50;54.90;;;;;;6063629;29;19928;-55
2023/01/14 14:41:35;;;;;;;;;;;21.70;54.80;;;;;;6063901;29;19930;-55
2023/01/14 14:44:36;;;;;;;;;;;21.40;54.70;;;;;;6062998;29;19995;-55
2023/01/14 14:47:42;;;;;;;;;;;21.90;55.10;;;;;;6063333;29;20385;-55
2023/01/14 14:50:44;;;;;;;;;;;21.30;54.60;;;;;;6063330;29;19924;-53
2023/01/14 14:53:45;;;;;;;;;;;22.00;55.10;;;;;;6063053;29;19931;-55
2023/01/14 14:56:47;;;;;;;;;;;21.30;54.80;;;;;;6063498;29;19971;-54
2023/01/14 14:59:48;;;;;;;;;;;21.50;54.90;;;;;;6063662;29;19924;-55
2023/01/14 15:02:51;;;;;;;;;;;21.30;54.70;;;;;;6063371;29;19931;-55
2023/01/14 15:05:53;;;;;;;;;;;21.70;55.00;;;;;;6046443;29;20031;-55
2023/01/14 15:08:57;;;;;;;;;;;21.80;55.20;;;;;;6063952;29;19924;-55
2023/01/14 15:11:58;;;;;;;;;;;21.40;54.90;;;;;;6063260;29;19923;-55
2023/01/14 15:15:00;;;;;;;;;;;21.60;55.00;;;;;;6063387;29;19931;-55
2023/01/14 15:18:05;;;;;;;;;;;21.10;54.80;;;;;;6045707;29;20029;-55
2023/01/14 15:21:08;;;;;;;;;;;21.30;54.80;;;;;;6063383;29;19923;-54
2023/01/14 15:24:14;;;;;;;;;;;21.10;54.90;;;;;;6062932;29;19924;-53
2023/01/14 15:27:18;;;;;;;;;;;21.20;54.80;;;;;;6062905;29;19974;-55
2023/01/14 15:30:23;;;;;;;;;;;21.60;54.60;;;;;;6063207;29;19924;-55
2023/01/14 15:33:25;;;;;;;;;;;21.30;54.90;;;;;;6046021;29;19923;-54
2023/01/14 15:36:28;;;;;;;;;;;21.10;54.80;;;;;;6045813;29;19931;-55
2023/01/14 15:39:29;;;;;;;;;;;21.40;55.10;;;;;;6062854;29;20281;-55
2023/01/14 15:42:30;;;;;;;;;;;21.90;55.40;;;;;;6062979;29;19951;-50
2023/01/14 15:45:32;;;;;;;;;;;21.40;55.20;;;;;;6062977;29;20292;-55
2023/01/14 15:48:38;;;;;;;;;;;21.90;55.40;;;;;;6063071;29;19931;-53
2023/01/14 15:51:40;;;;;;;;;;;21.50;55.00;;;;;;6062381;29;19924;-55
2023/01/14 15:54:43;;;;;;;;;;;21.60;55.30;;;;;;6062344;29;20397;-51
2023/01/14 15:57:45;;;;;;;;;;;21.60;55.30;;;;;;6063349;29;20408;-55
2023/01/14 16:00:46;;;;;;;;;;;21.90;55.50;;;;;;6046605;29;19924;-54
2023/01/14 16:03:48;;;;;;;;;;;21.30;55.10;;;;;;6064222;29;19923;-55
2023/01/14 16:06:53;;;;;;;;;;;21.90;55.40;;;;;;6063004;29;20237;-54
2023/01/14 16:09:58;;;;;;;;;;;21.60;55.30;;;;;;6062675;29;19976;-54
2023/01/14 16:13:00;;;;;;;;;;;21.90;55.50;;;;;;6063018;29;19924;-54
2023/01/14 16:16:02;;;;;;;;;;;21.30;55.10;;;;;;6063362;29;19932;-52
2023/01/14 16:19:03;;;;;;;;;;;21.90;55.60;;;;;;6062400;29;19923;-54
2023/01/14 16:22:05;;;;;;;;;;;21.40;55.00;;;;;;6063175;29;19924;-52
2023/01/14 16:25:06;;;;;;;;;;;21.90;55.70;;;;;;6062676;29;19980;-55
2023/01/14 16:28:09;;;;;;;;;;;21.30;55.30;;;;;;6063212;29;19963;-55
2023/01/14 16:31:11;;;;;;;;;;;21.90;55.50;;;;;;6065789;29;20364;-55
2023/01/14 16:34:12;;;;;;;;;;;21.40;55.40;;;;;;6049180;29;19924;-54
2023/01/14 16:37:14;;;;;;;;;;;21.50;55.60;;;;;;6065817;29;19924;-53
2023/01/14 16:40:19;;;;;;;;;;;21.20;55.40;;;;;;6066202;29;19927;-55
2023/01/14 16:43:21;;;;;;;;;;;21.40;55.30;;;;;;6066266;29;19931;-55
2023/01/14 16:46:22;;;;;;;;;;;21.20;55.30;;;;;;6065862;29;19927;-55
2023/01/14 16:49:23;;;;;;;;;;;21.60;55.60;;;;;;6065335;29;19923;-54
2023/01/14 16:52:25;;;;;;;;;;;21.50;55.30;;;;;;6065351;29;19923;-54
2023/01/14 16:55:27;;;;;;;;;;;21.70;55.80;;;;;;6065617;29;19958;-55
2023/01/14 16:58:29;;;;;;;;;;;21.20;55.40;;;;;;6064658;29;19931;-54
2023/01/14 17:01:30;;;;;;;;;;;21.90;56.00;;;;;;6064750;29;20015;-55
2023/01/14 17:04:32;;;;;;;;;;;21.30;55.60;;;;;;6064173;29;19928;-54
2023/01/14 17:07:34;;;;;;;;;;;21.80;56.00;;;;;;6064620;29;19924;-55
2023/01/14 17:10:37;;;;;;;;;;;21.20;55.70;;;;;;6063974;29;20377;-55
2023/01/14 17:13:38;;;;;;;;;;;21.80;55.90;;;;;;6064971;29;19931;-54
2023/01/14 17:16:39;;;;;;;;;;;21.20;55.60;;;;;;6064741;29;19923;-55
2023/01/14 17:19:41;;;;;;;;;;;21.50;55.90;;;;;;6064475;29;19947;-55
2023/01/14 17:22:43;;;;;;;;;;;21.40;55.70;;;;;;6064780;29;19928;-53
2023/01/14 17:25:44;;;;;;;;;;;21.20;55.70;;;;;;6064041;29;19931;-54
2023/01/14 17:28:45;;;;;;;;;;;21.50;56.00;;;;;;6064690;29;19939;-54
2023/01/14 17:31:47;;;;;;;;;;;21.10;55.70;;;;;;6064441;29;19924;-54
2023/01/14 17:34:48;;;;;;;;;;;21.20;55.60;;;;;;6064238;29;20033;-54
2023/01/14 17:37:51;;;;;;;;;;;21.50;55.90;;;;;;6064276;29;19998;-55
2023/01/14 17:40:52;;;;;;;;;;;21.10;55.70;;;;;;6063620;29;19928;-53
2023/01/14 17:43:54;;;;;;;;;;;21.10;55.70;;;;;;6063793;29;19932;-53
2023/01/14 17:46:55;;;;;;;;;;;21.50;55.80;;;;;;6063845;29;19963;-55
2023/01/14 17:49:57;;;;;;;;;;;21.80;56.20;;;;;;6063514;29;19924;-55
2023/01/14 17:52:59;;;;;;;;;;;21.50;56.00;;;;;;6063313;29;19935;-55
2023/01/14 17:56:00;;;;;;;;;;;21.70;56.10;;;;;;6063398;29;19948;-54
2023/01/14 17:59:01;;;;;;;;;;;21.40;55.60;;;;;;6063635;29;19923;-55
2023/01/14 18:02:03;;;;;;;;;;;21.60;56.10;;;;;;6063756;29;19960;-55
2023/01/14 18:05:04;;;;;;;;;;;21.30;55.70;;;;;;6063597;29;20377;-55
2023/01/14 18:08:06;;;;;;;;;;;21.60;56.00;;;;;;6063180;29;20376;-55
2023/01/14 18:11:08;;;;;;;;;;;21.10;55.80;;;;;;6063244;29;19924;-54
2023/01/14 18:14:10;;;;;;;;;;;21.30;55.80;;;;;;6063016;29;19931;-55
2023/01/14 18:17:11;;;;;;;;;;;21.30;55.80;;;;;;6063348;29;19959;-55
2023/01/14 18:20:13;;;;;;;;;;;21.60;56.20;;;;;;6062973;29;19927;-55
2023/01/14 18:23:15;;;;;;;;;;;21.10;55.80;;;;;;6062454;29;20010;-54